createdAt,value
2023-04-16T00:00:06.901Z,127.36
2023-04-16T00:01:06.930Z,124.60
2023-04-16T00:02:07.094Z,124.78
2023-04-16T00:03:07.332Z,126.21
2023-04-16T00:04:07.393Z,124.94
2023-04-16T00:05:07.167Z,122.82
2023-04-16T00:06:07.203Z,126.04
2023-04-16T00:07:07.186Z,125.96
2023-04-16T00:08:07.242Z,123.14
2023-04-16T00:09:07.544Z,125.08
2023-04-16T00:10:07.348Z,126.54
2023-04-16T00:11:07.453Z,124.89
2023-04-16T00:12:07.459Z,125.83
2023-04-16T00:13:07.501Z,125.14
2023-04-16T00:14:07.514Z,126.83
2023-04-16T00:15:07.588Z,125.77
2023-04-16T00:16:07.630Z,124.38
2023-04-16T00:17:07.713Z,123.69
2023-04-16T00:18:07.661Z,126.15
2023-04-16T00:19:07.842Z,124.09
2023-04-16T00:20:07.782Z,124.52
2023-04-16T00:21:07.794Z,125.96
2023-04-16T00:22:08.012Z,123.51
2023-04-16T00:23:08.000Z,126.76
2023-04-16T00:24:07.950Z,127.09
2023-04-16T00:25:08.012Z,124.14
2023-04-16T00:26:08.052Z,125.67
2023-04-16T00:27:08.078Z,124.40
2023-04-16T00:28:09.517Z,122.47
2023-04-16T00:29:08.460Z,123.53
2023-04-16T00:30:08.130Z,123.46
2023-04-16T00:31:08.125Z,126.39
2023-04-16T00:32:08.209Z,124.67
2023-04-16T00:33:08.051Z,126.51
2023-04-16T00:34:08.113Z,123.58
2023-04-16T00:35:08.142Z,125.36
2023-04-16T00:36:08.036Z,123.59
2023-04-16T00:37:08.067Z,125.09
2023-04-16T00:38:08.011Z,124.16
2023-04-16T00:39:08.329Z,124.91
2023-04-16T00:40:08.026Z,123.09
2023-04-16T00:41:08.006Z,125.28
2023-04-16T00:42:08.052Z,122.08
2023-04-16T00:43:07.980Z,122.35
2023-04-16T00:44:08.032Z,125.53
2023-04-16T00:45:07.982Z,124.34
2023-04-16T00:46:08.013Z,122.83
2023-04-16T00:47:07.982Z,124.73
2023-04-16T00:48:07.981Z,124.21
2023-04-16T00:49:08.268Z,124.93
2023-04-16T00:50:07.953Z,122.94
2023-04-16T00:51:07.965Z,124.21
2023-04-16T00:52:07.969Z,123.77
2023-04-16T00:53:07.906Z,123.64
2023-04-16T00:54:07.914Z,123.57
2023-04-16T00:55:07.978Z,123.02
2023-04-16T00:56:07.927Z,123.43
2023-04-16T00:57:07.908Z,121.31
2023-04-16T00:58:08.350Z,121.62
2023-04-16T00:59:09.040Z,124.05
2023-04-16T01:00:07.950Z,122.67
2023-04-16T01:01:07.897Z,120.53
2023-04-16T01:02:07.931Z,116.86
2023-04-16T01:03:07.996Z,120.44
2023-04-16T01:04:08.027Z,123.38
2023-04-16T01:05:07.862Z,123.51
2023-04-16T01:06:07.877Z,123.80
2023-04-16T01:07:07.908Z,125.58
2023-04-16T01:08:07.906Z,122.23
2023-04-16T01:09:08.232Z,121.88
2023-04-16T01:10:08.052Z,120.55
2023-04-16T01:11:08.036Z,123.79
2023-04-16T01:12:08.231Z,121.65
2023-04-16T01:13:08.121Z,123.38
2023-04-16T01:14:08.185Z,127.05
2023-04-16T01:15:08.225Z,122.19
2023-04-16T01:16:08.404Z,122.95
2023-04-16T01:17:08.316Z,122.92
2023-04-16T01:18:08.324Z,120.22
2023-04-16T01:19:08.659Z,121.15
2023-04-16T01:20:08.435Z,119.58
2023-04-16T01:21:08.484Z,120.34
2023-04-16T01:22:08.517Z,121.58
2023-04-16T01:23:08.559Z,122.06
2023-04-16T01:24:08.828Z,121.94
2023-04-16T01:25:08.709Z,123.64
2023-04-16T01:26:08.712Z,121.77
2023-04-16T01:27:08.724Z,121.43
2023-04-16T01:28:08.761Z,122.74
2023-04-16T01:29:09.020Z,122.27
2023-04-16T01:30:10.002Z,124.68
2023-04-16T01:31:08.961Z,121.03
2023-04-16T01:32:09.075Z,120.26
2023-04-16T01:33:09.002Z,119.29
2023-04-16T01:34:09.020Z,119.71
2023-04-16T01:35:09.095Z,119.02
2023-04-16T01:36:09.135Z,120.87
2023-04-16T01:37:09.176Z,120.53
2023-04-16T01:38:09.223Z,119.14
2023-04-16T01:39:09.394Z,121.30
2023-04-16T01:40:09.285Z,119.77
2023-04-16T01:41:09.325Z,121.74
2023-04-16T01:42:09.373Z,118.32
2023-04-16T01:43:09.440Z,120.27
2023-04-16T01:44:09.455Z,123.21
2023-04-16T01:45:09.498Z,119.32
2023-04-16T01:46:09.641Z,120.60
2023-04-16T01:47:09.576Z,121.34
2023-04-16T01:48:09.652Z,120.03
2023-04-16T01:49:09.817Z,122.30
2023-04-16T01:50:09.761Z,120.89
2023-04-16T01:51:09.754Z,120.99
2023-04-16T01:52:09.828Z,121.84
2023-04-16T01:53:09.882Z,116.36
2023-04-16T01:54:09.862Z,121.22
2023-04-16T01:55:09.910Z,119.03
2023-04-16T01:56:09.960Z,118.22
2023-04-16T01:57:10.023Z,117.68
2023-04-16T01:58:10.233Z,119.06
2023-04-16T01:59:10.364Z,121.50
2023-04-16T02:00:10.133Z,119.94
2023-04-16T02:01:10.256Z,119.86
2023-04-16T02:02:10.454Z,121.64
2023-04-16T02:03:10.350Z,120.61
2023-04-16T02:04:10.367Z,123.52
2023-04-16T02:05:10.432Z,118.62
2023-04-16T02:06:10.397Z,119.79
2023-04-16T02:07:10.488Z,119.36
2023-04-16T02:08:10.505Z,119.07
2023-04-16T02:09:10.643Z,117.64
2023-04-16T02:10:10.612Z,119.40
2023-04-16T02:11:10.662Z,121.07
2023-04-16T02:12:10.676Z,121.61
2023-04-16T02:13:10.738Z,117.36
2023-04-16T02:14:10.743Z,118.38
2023-04-16T02:15:10.831Z,117.67
2023-04-16T02:16:10.874Z,119.17
2023-04-16T02:17:10.861Z,119.62
2023-04-16T02:18:11.043Z,119.88
2023-04-16T02:19:11.108Z,116.96
2023-04-16T02:20:10.985Z,121.10
2023-04-16T02:21:11.042Z,120.90
2023-04-16T02:22:11.157Z,123.01
2023-04-16T02:23:11.162Z,120.81
2023-04-16T02:24:11.220Z,118.77
2023-04-16T02:25:11.290Z,119.96
2023-04-16T02:26:11.275Z,117.39
2023-04-16T02:27:11.405Z,118.06
2023-04-16T02:28:11.452Z,114.23
2023-04-16T02:29:11.711Z,119.58
2023-04-16T02:30:11.612Z,118.70
2023-04-16T02:31:11.583Z,118.91
2023-04-16T02:32:11.698Z,114.36
2023-04-16T02:33:11.661Z,116.72
2023-04-16T02:34:11.736Z,122.07
2023-04-16T02:35:11.777Z,119.83
2023-04-16T02:36:11.786Z,118.93
2023-04-16T02:37:11.840Z,116.77
2023-04-16T02:38:11.837Z,117.92
2023-04-16T02:39:11.874Z,117.41
2023-04-16T02:40:11.910Z,118.95
2023-04-16T02:41:12.006Z,118.52
2023-04-16T02:42:12.072Z,116.02
2023-04-16T02:43:12.074Z,116.46
2023-04-16T02:44:12.119Z,118.80
2023-04-16T02:45:12.179Z,117.89
2023-04-16T02:46:12.283Z,115.26
2023-04-16T02:47:12.298Z,114.71
2023-04-16T02:48:12.401Z,116.69
2023-04-16T02:49:12.356Z,117.98
2023-04-16T02:50:12.392Z,115.02
2023-04-16T02:51:12.534Z,117.07
2023-04-16T02:52:14.369Z,117.80
2023-04-16T02:53:12.493Z,117.60
2023-04-16T02:54:12.489Z,116.15
2023-04-16T02:55:12.507Z,119.42
2023-04-16T02:56:12.450Z,116.13
2023-04-16T02:57:12.442Z,113.78
2023-04-16T02:58:12.464Z,120.00
2023-04-16T02:59:12.447Z,120.54
2023-04-16T03:00:12.430Z,117.90
2023-04-16T03:01:12.468Z,116.97
2023-04-16T03:02:12.443Z,119.59
2023-04-16T03:03:12.438Z,114.78
2023-04-16T03:04:12.431Z,117.08
2023-04-16T03:05:12.485Z,119.68
2023-04-16T03:06:12.366Z,117.82
2023-04-16T03:07:12.396Z,116.63
2023-04-16T03:08:12.463Z,118.88
2023-04-16T03:09:12.501Z,119.21
2023-04-16T03:10:12.367Z,118.30
2023-04-16T03:11:12.327Z,119.90
2023-04-16T03:12:12.353Z,114.06
2023-04-16T03:13:12.315Z,116.87
2023-04-16T03:14:12.350Z,114.85
2023-04-16T03:15:12.311Z,118.93
2023-04-16T03:16:12.362Z,117.71
2023-04-16T03:17:12.345Z,115.59
2023-04-16T03:18:12.309Z,116.89
2023-04-16T03:19:12.509Z,119.42
2023-04-16T03:20:12.328Z,115.69
2023-04-16T03:21:12.293Z,118.45
2023-04-16T03:22:12.447Z,116.20
2023-04-16T03:23:12.310Z,117.87
2023-04-16T03:24:12.241Z,116.92
2023-04-16T03:25:12.251Z,113.97
2023-04-16T03:26:12.247Z,114.95
2023-04-16T03:27:12.267Z,116.23
2023-04-16T03:28:12.220Z,115.65
2023-04-16T03:29:12.224Z,117.92
2023-04-16T03:30:12.225Z,116.01
2023-04-16T03:31:12.281Z,115.63
2023-04-16T03:32:12.234Z,117.89
2023-04-16T03:33:12.276Z,115.12
2023-04-16T03:34:12.200Z,116.28
2023-04-16T03:35:12.223Z,115.69
2023-04-16T03:36:12.188Z,114.65
2023-04-16T03:37:12.276Z,115.16
2023-04-16T03:38:12.302Z,116.59
2023-04-16T03:39:12.444Z,115.65
2023-04-16T03:40:12.451Z,114.92
2023-04-16T03:41:12.512Z,115.60
2023-04-16T03:42:12.584Z,114.32
2023-04-16T03:43:12.657Z,116.11
2023-04-16T03:44:12.653Z,117.64
2023-04-16T03:45:12.704Z,113.01
2023-04-16T03:46:12.780Z,116.57
2023-04-16T03:47:12.839Z,115.09
2023-04-16T03:48:12.870Z,116.07
2023-04-16T03:49:12.987Z,115.53
2023-04-16T03:50:12.998Z,113.29
2023-04-16T03:51:13.036Z,115.51
2023-04-16T03:52:13.088Z,116.29
2023-04-16T03:53:13.154Z,115.92
2023-04-16T03:54:13.218Z,112.45
2023-04-16T03:55:13.244Z,116.17
2023-04-16T03:56:13.287Z,116.06
2023-04-16T03:57:13.411Z,111.42
2023-04-16T03:58:13.399Z,116.24
2023-04-16T03:59:13.504Z,116.00
2023-04-16T04:00:13.550Z,112.25
2023-04-16T04:01:13.565Z,115.72
2023-04-16T04:02:13.880Z,113.31
2023-04-16T04:03:13.835Z,111.85
2023-04-16T04:04:13.826Z,117.95
2023-04-16T04:05:13.820Z,115.30
2023-04-16T04:06:13.882Z,112.11
2023-04-16T04:07:13.948Z,113.40
2023-04-16T04:08:13.985Z,116.68
2023-04-16T04:09:14.093Z,112.26
2023-04-16T04:10:14.089Z,111.83
2023-04-16T04:11:14.179Z,114.67
2023-04-16T04:12:14.206Z,114.51
2023-04-16T04:13:14.262Z,116.57
2023-04-16T04:14:14.335Z,116.46
2023-04-16T04:15:14.382Z,115.45
2023-04-16T04:16:14.465Z,115.52
2023-04-16T04:17:14.498Z,116.74
2023-04-16T04:18:14.555Z,113.83
2023-04-16T04:19:14.675Z,115.48
2023-04-16T04:20:14.681Z,115.67
2023-04-16T04:21:14.743Z,113.15
2023-04-16T04:22:14.731Z,115.91
2023-04-16T04:23:14.845Z,112.20
2023-04-16T04:24:14.875Z,112.38
2023-04-16T04:25:14.912Z,114.46
2023-04-16T04:26:15.020Z,109.34
2023-04-16T04:27:15.039Z,109.69
2023-04-16T04:28:15.107Z,114.36
2023-04-16T04:29:15.149Z,115.17
2023-04-16T04:30:15.202Z,115.19
2023-04-16T04:31:15.307Z,111.99
2023-04-16T04:32:15.336Z,113.04
2023-04-16T04:33:15.373Z,112.07
2023-04-16T04:34:15.427Z,114.00
2023-04-16T04:35:15.457Z,112.70
2023-04-16T04:36:15.504Z,112.98
2023-04-16T04:37:15.601Z,111.57
2023-04-16T04:38:16.284Z,113.24
2023-04-16T04:39:15.726Z,112.78
2023-04-16T04:40:15.780Z,115.82
2023-04-16T04:41:15.780Z,114.62
2023-04-16T04:42:15.965Z,114.61
2023-04-16T04:43:15.957Z,112.05
2023-04-16T04:44:16.539Z,116.08
2023-04-16T04:45:16.081Z,111.08
2023-04-16T04:46:16.367Z,113.73
2023-04-16T04:47:16.201Z,111.02
2023-04-16T04:48:16.242Z,113.48
2023-04-16T04:49:16.291Z,114.14
2023-04-16T04:50:16.364Z,116.24
2023-04-16T04:51:16.485Z,117.06
2023-04-16T04:52:16.487Z,112.09
2023-04-16T04:53:16.538Z,112.64
2023-04-16T04:54:16.702Z,112.04
2023-04-16T04:55:16.625Z,112.99
2023-04-16T04:56:16.654Z,113.58
2023-04-16T04:57:16.786Z,113.32
2023-04-16T04:58:16.779Z,109.32
2023-04-16T04:59:16.851Z,113.90
2023-04-16T05:00:16.948Z,113.80
2023-04-16T05:01:17.040Z,114.55
2023-04-16T05:02:17.174Z,113.24
2023-04-16T05:03:17.173Z,111.66
2023-04-16T05:04:17.993Z,112.60
2023-04-16T05:05:17.254Z,109.80
2023-04-16T05:06:17.293Z,111.18
2023-04-16T05:07:17.563Z,111.18
2023-04-16T05:08:17.457Z,113.07
2023-04-16T05:09:17.499Z,112.71
2023-04-16T05:10:17.520Z,109.94
2023-04-16T05:11:17.581Z,112.17
2023-04-16T05:12:17.636Z,112.87
2023-04-16T05:13:17.674Z,112.87
2023-04-16T05:14:17.917Z,111.55
2023-04-16T05:15:17.815Z,113.45
2023-04-16T05:16:17.860Z,111.43
2023-04-16T05:17:18.050Z,110.40
2023-04-16T05:18:18.028Z,111.37
2023-04-16T05:19:18.046Z,109.25
2023-04-16T05:20:18.100Z,110.78
2023-04-16T05:21:18.148Z,110.21
2023-04-16T05:22:18.239Z,113.07
2023-04-16T05:23:18.935Z,109.44
2023-04-16T05:24:18.359Z,112.85
2023-04-16T05:25:18.386Z,111.65
2023-04-16T05:26:18.556Z,115.15
2023-04-16T05:27:18.579Z,112.43
2023-04-16T05:28:18.704Z,110.99
2023-04-16T05:29:18.615Z,111.70
2023-04-16T05:30:18.697Z,112.91
2023-04-16T05:31:18.790Z,109.35
2023-04-16T05:32:18.831Z,113.74
2023-04-16T05:33:18.937Z,112.50
2023-04-16T05:34:18.978Z,109.83
2023-04-16T05:35:19.019Z,113.07
2023-04-16T05:36:19.082Z,114.31
2023-04-16T05:37:19.140Z,114.24
2023-04-16T05:38:19.214Z,111.15
2023-04-16T05:39:19.279Z,110.87
2023-04-16T05:40:19.363Z,110.00
2023-04-16T05:41:19.373Z,109.33
2023-04-16T05:42:19.439Z,114.03
2023-04-16T05:43:19.520Z,110.84
2023-04-16T05:44:19.539Z,112.43
2023-04-16T05:45:19.598Z,111.98
2023-04-16T05:46:19.671Z,111.11
2023-04-16T05:47:19.728Z,108.62
2023-04-16T05:48:19.792Z,110.93
2023-04-16T05:49:19.853Z,113.01
2023-04-16T05:50:19.884Z,111.45
2023-04-16T05:51:19.961Z,111.07
2023-04-16T05:52:20.029Z,110.23
2023-04-16T05:53:20.074Z,111.21
2023-04-16T05:54:20.112Z,110.50
2023-04-16T05:55:21.043Z,117.70
2023-04-16T05:56:20.242Z,114.34
2023-04-16T05:57:20.448Z,112.77
2023-04-16T05:58:20.404Z,113.88
2023-04-16T05:59:20.516Z,108.16
2023-04-16T06:00:20.518Z,110.74
2023-04-16T06:01:20.576Z,113.47
2023-04-16T06:02:20.739Z,113.04
2023-04-16T06:03:20.824Z,113.05
2023-04-16T06:04:20.808Z,111.33
2023-04-16T06:05:20.825Z,111.33
2023-04-16T06:06:20.866Z,111.56
2023-04-16T06:07:20.960Z,110.42
2023-04-16T06:08:21.001Z,113.94
2023-04-16T06:09:21.043Z,110.59
2023-04-16T06:10:21.129Z,108.21
2023-04-16T06:11:21.169Z,112.61
2023-04-16T06:12:21.380Z,113.09
2023-04-16T06:13:21.360Z,110.83
2023-04-16T06:14:21.354Z,111.82
2023-04-16T06:15:21.417Z,112.50
2023-04-16T06:16:21.477Z,114.32
2023-04-16T06:17:21.489Z,112.65
2023-04-16T06:18:21.597Z,111.73
2023-04-16T06:19:21.641Z,112.45
2023-04-16T06:20:21.717Z,112.42
2023-04-16T06:21:21.751Z,110.35
2023-04-16T06:22:21.790Z,112.87
2023-04-16T06:23:21.855Z,113.99
2023-04-16T06:24:21.948Z,111.16
2023-04-16T06:25:21.966Z,107.44
2023-04-16T06:26:22.029Z,110.85
2023-04-16T06:27:22.136Z,108.64
2023-04-16T06:28:22.105Z,109.51
2023-04-16T06:29:25.880Z,113.15
2023-04-16T06:30:23.177Z,113.22
2023-04-16T06:31:22.339Z,113.40
2023-04-16T06:32:22.187Z,112.54
2023-04-16T06:33:22.173Z,112.94
2023-04-16T06:34:22.182Z,112.76
2023-04-16T06:35:22.153Z,110.84
2023-04-16T06:36:22.139Z,112.67
2023-04-16T06:37:22.205Z,109.49
2023-04-16T06:38:22.338Z,111.78
2023-04-16T06:39:22.268Z,111.35
2023-04-16T06:40:22.329Z,113.29
2023-04-16T06:41:22.378Z,113.37
2023-04-16T06:42:22.468Z,112.77
2023-04-16T06:43:22.493Z,111.13
2023-04-16T06:44:22.580Z,109.72
2023-04-16T06:45:23.511Z,110.71
2023-04-16T06:46:22.788Z,111.66
2023-04-16T06:47:22.782Z,111.29
2023-04-16T06:48:22.847Z,113.42
2023-04-16T06:49:22.870Z,108.16
2023-04-16T06:50:22.918Z,111.22
2023-04-16T06:51:22.957Z,111.64
2023-04-16T06:52:23.034Z,110.23
2023-04-16T06:53:23.064Z,112.78
2023-04-16T06:54:23.144Z,112.15
2023-04-16T06:55:23.185Z,111.09
2023-04-16T06:56:23.399Z,110.02
2023-04-16T06:57:23.306Z,111.23
2023-04-16T06:58:23.384Z,107.38
2023-04-16T06:59:23.419Z,111.95
2023-04-16T07:00:23.621Z,110.92
2023-04-16T07:01:23.562Z,109.88
2023-04-16T07:02:23.751Z,109.08
2023-04-16T07:03:23.807Z,110.43
2023-04-16T07:04:23.715Z,109.76
2023-04-16T07:05:23.876Z,111.53
2023-04-16T07:06:23.798Z,112.35
2023-04-16T07:07:23.841Z,109.86
2023-04-16T07:08:23.886Z,112.84
2023-04-16T07:09:24.006Z,109.70
2023-04-16T07:10:24.004Z,110.92
2023-04-16T07:11:24.050Z,112.93
2023-04-16T07:12:24.130Z,116.29
2023-04-16T07:13:24.249Z,113.57
2023-04-16T07:14:24.246Z,110.91
2023-04-16T07:15:24.257Z,116.15
2023-04-16T07:16:24.359Z,112.31
2023-04-16T07:17:24.332Z,115.40
2023-04-16T07:18:24.435Z,112.44
2023-04-16T07:19:24.397Z,109.98
2023-04-16T07:20:24.534Z,114.71
2023-04-16T07:21:24.709Z,114.51
2023-04-16T07:22:24.560Z,110.71
2023-04-16T07:23:24.639Z,112.31
2023-04-16T07:24:24.709Z,110.66
2023-04-16T07:25:24.713Z,114.53
2023-04-16T07:26:24.743Z,112.16
2023-04-16T07:27:24.835Z,112.24
2023-04-16T07:28:24.841Z,114.27
2023-04-16T07:29:24.921Z,110.65
2023-04-16T07:30:25.044Z,111.47
2023-04-16T07:31:25.098Z,110.02
2023-04-16T07:32:25.351Z,111.69
2023-04-16T07:33:25.079Z,110.97
2023-04-16T07:34:25.199Z,108.95
2023-04-16T07:35:25.224Z,110.24
2023-04-16T07:36:25.313Z,111.40
2023-04-16T07:37:25.404Z,112.88
2023-04-16T07:38:25.342Z,111.63
2023-04-16T07:39:25.455Z,109.23
2023-04-16T07:40:25.501Z,113.19
2023-04-16T07:41:25.548Z,111.44
2023-04-16T07:42:25.622Z,113.05
2023-04-16T07:43:25.614Z,110.18
2023-04-16T07:44:25.627Z,111.53
2023-04-16T07:45:25.747Z,112.95
2023-04-16T07:46:30.516Z,109.77
2023-04-16T07:47:26.860Z,110.01
2023-04-16T07:48:25.712Z,110.67
2023-04-16T07:49:25.811Z,111.68
2023-04-16T07:50:25.796Z,113.31
2023-04-16T07:51:25.673Z,113.18
2023-04-16T07:52:25.738Z,114.68
2023-04-16T07:53:25.727Z,112.09
2023-04-16T07:54:27.344Z,113.10
2023-04-16T07:55:25.743Z,115.10
2023-04-16T07:56:25.651Z,113.94
2023-04-16T07:57:25.731Z,112.88
2023-04-16T07:58:25.659Z,112.64
2023-04-16T07:59:26.114Z,106.85
2023-04-16T08:00:25.653Z,112.90
2023-04-16T08:01:25.657Z,112.93
2023-04-16T08:02:25.805Z,110.40
2023-04-16T08:03:25.888Z,110.11
2023-04-16T08:04:26.432Z,113.35
2023-04-16T08:05:25.629Z,112.64
2023-04-16T08:06:25.575Z,113.24
2023-04-16T08:07:25.591Z,114.22
2023-04-16T08:08:26.046Z,106.04
2023-04-16T08:09:25.603Z,112.92
2023-04-16T08:10:25.540Z,108.96
2023-04-16T08:11:25.567Z,112.69
2023-04-16T08:12:25.568Z,113.20
2023-04-16T08:13:25.577Z,109.65
2023-04-16T08:14:25.540Z,110.84
2023-04-16T08:15:25.543Z,111.15
2023-04-16T08:16:25.673Z,113.53
2023-04-16T08:17:25.547Z,112.70
2023-04-16T08:18:25.559Z,112.62
2023-04-16T08:19:25.535Z,114.07
2023-04-16T08:20:25.522Z,112.56
2023-04-16T08:21:25.522Z,109.32
2023-04-16T08:22:25.450Z,108.73
2023-04-16T08:23:25.530Z,112.07
2023-04-16T08:24:25.439Z,110.29
2023-04-16T08:25:25.454Z,112.42
2023-04-16T08:26:25.426Z,111.41
2023-04-16T08:27:25.475Z,111.44
2023-04-16T08:28:25.466Z,112.54
2023-04-16T08:29:25.424Z,111.72
2023-04-16T08:31:44.394Z,25.00
2023-04-16T08:32:44.421Z,25.00
2023-04-16T08:33:44.342Z,25.00
2023-04-16T08:34:44.457Z,25.00
2023-04-16T08:35:44.312Z,25.00
2023-04-16T08:36:44.418Z,29.91
2023-04-16T08:37:44.295Z,25.07
2023-04-16T08:38:44.336Z,28.66
2023-04-16T08:39:44.367Z,27.40
2023-04-16T08:40:44.318Z,27.69
2023-04-16T08:41:44.288Z,27.60
2023-04-16T08:42:44.320Z,28.87
2023-04-16T08:43:44.288Z,25.00
2023-04-16T08:44:44.267Z,28.96
2023-04-16T08:45:44.326Z,27.51
2023-04-16T08:46:44.510Z,29.62
2023-04-16T08:47:44.289Z,32.80
2023-04-16T08:48:44.231Z,29.31
2023-04-16T08:49:44.432Z,28.03
2023-04-16T08:50:44.246Z,30.65
2023-04-16T08:51:44.214Z,30.08
2023-04-16T08:52:44.208Z,31.24
2023-04-16T08:53:44.223Z,31.29
2023-04-16T08:54:44.167Z,29.30
2023-04-16T08:55:44.192Z,31.04
2023-04-16T08:56:44.236Z,29.79
2023-04-16T08:57:44.204Z,27.48
2023-04-16T08:58:44.160Z,28.43
2023-04-16T08:59:44.206Z,27.37
2023-04-16T09:00:44.152Z,29.32
2023-04-16T09:01:44.211Z,25.22
2023-04-16T09:02:44.357Z,26.89
2023-04-16T09:03:44.358Z,27.12
2023-04-16T09:04:44.163Z,27.85
2023-04-16T09:05:44.105Z,27.25
2023-04-16T09:06:44.133Z,29.15
2023-04-16T09:07:44.127Z,27.68
2023-04-16T09:08:44.802Z,30.32
2023-04-16T09:09:44.077Z,30.04
2023-04-16T09:10:44.083Z,30.53
2023-04-16T09:11:44.110Z,29.72
2023-04-16T09:12:44.097Z,30.28
2023-04-16T09:13:44.090Z,26.96
2023-04-16T09:14:44.086Z,33.05
2023-04-16T09:15:44.101Z,31.24
2023-04-16T09:16:44.111Z,27.84
2023-04-16T09:17:44.272Z,27.96
2023-04-16T09:18:44.125Z,28.79
2023-04-16T09:19:44.127Z,28.45
2023-04-16T09:20:44.135Z,29.89
2023-04-16T09:21:44.244Z,27.92
2023-04-16T09:22:44.254Z,29.46
2023-04-16T09:23:44.251Z,28.53
2023-04-16T09:24:44.450Z,30.58
2023-04-16T09:25:44.307Z,30.47
2023-04-16T09:26:44.933Z,31.63
2023-04-16T09:27:44.333Z,29.27
2023-04-16T09:28:44.401Z,30.85
2023-04-16T09:29:44.513Z,28.69
2023-04-16T09:30:44.453Z,29.02
2023-04-16T09:31:44.713Z,30.28
2023-04-16T09:32:44.551Z,32.33
2023-04-16T09:33:44.600Z,31.59
2023-04-16T09:34:44.606Z,32.33
2023-04-16T09:35:44.648Z,30.31
2023-04-16T09:36:44.666Z,32.16
2023-04-16T09:37:44.656Z,33.05
2023-04-16T09:38:44.677Z,29.17
2023-04-16T09:39:44.749Z,32.08
2023-04-16T09:40:44.760Z,31.09
2023-04-16T09:41:44.719Z,32.90
2023-04-16T09:42:44.802Z,32.15
2023-04-16T09:43:44.918Z,31.01
2023-04-16T09:44:44.816Z,31.40
2023-04-16T09:45:44.847Z,30.62
2023-04-16T09:46:44.839Z,32.53
2023-04-16T09:47:44.903Z,31.18
2023-04-16T09:48:44.960Z,30.79
2023-04-16T09:49:44.931Z,31.27
2023-04-16T09:50:44.928Z,32.22
2023-04-16T09:51:44.989Z,30.83
2023-04-16T09:52:45.038Z,31.24
2023-04-16T09:53:44.954Z,33.36
2023-04-16T09:54:44.980Z,31.24
2023-04-16T09:55:46.914Z,31.80
2023-04-16T09:56:44.999Z,32.33
2023-04-16T09:57:45.052Z,32.35
2023-04-16T09:58:45.040Z,32.41
2023-04-16T09:59:45.150Z,31.34
2023-04-16T10:00:45.062Z,30.38
2023-04-16T10:01:45.305Z,32.82
2023-04-16T10:02:45.230Z,31.46
2023-04-16T10:03:45.300Z,31.80
2023-04-16T10:04:45.209Z,31.03
2023-04-16T10:05:45.089Z,33.28
2023-04-16T10:06:45.071Z,33.42
2023-04-16T10:07:45.093Z,29.43
2023-04-16T10:08:45.120Z,31.66
2023-04-16T10:09:45.097Z,30.48
2023-04-16T10:10:45.211Z,31.52
2023-04-16T10:11:45.114Z,30.82
2023-04-16T10:12:45.175Z,32.81
2023-04-16T10:13:45.132Z,32.86
2023-04-16T10:14:45.249Z,34.86
2023-04-16T10:15:45.221Z,35.21
2023-04-16T10:16:45.378Z,31.58
2023-04-16T10:17:45.899Z,31.91
2023-04-16T10:18:45.156Z,32.78
2023-04-16T10:19:45.288Z,34.62
2023-04-16T10:20:45.172Z,32.62
2023-04-16T10:21:45.214Z,30.62
2023-04-16T10:22:45.256Z,32.00
2023-04-16T10:23:45.287Z,34.82
2023-04-16T10:24:45.305Z,30.31
2023-04-16T10:25:45.190Z,32.85
2023-04-16T10:26:45.203Z,33.29
2023-04-16T10:27:45.142Z,33.07
2023-04-16T10:28:45.156Z,34.67
2023-04-16T10:29:45.150Z,33.62
2023-04-16T10:30:45.217Z,31.43
2023-04-16T10:31:45.186Z,32.32
2023-04-16T10:32:45.318Z,34.92
2023-04-16T10:33:45.193Z,36.98
2023-04-16T10:34:45.187Z,33.52
2023-04-16T10:35:46.871Z,33.69
2023-04-16T10:36:46.200Z,33.87
2023-04-16T10:37:45.243Z,33.82
2023-04-16T10:38:45.204Z,33.82
2023-04-16T10:39:45.197Z,33.83
2023-04-16T10:40:45.128Z,35.07
2023-04-16T10:41:45.247Z,34.24
2023-04-16T10:42:45.116Z,33.29
2023-04-16T10:43:45.129Z,36.31
2023-04-16T10:44:45.592Z,32.51
2023-04-16T10:45:45.171Z,31.18
2023-04-16T10:46:45.111Z,33.40
2023-04-16T10:47:45.164Z,36.16
2023-04-16T10:49:45.118Z,37.83
2023-04-16T10:50:45.108Z,34.02
2023-04-16T10:51:45.105Z,36.61
2023-04-16T10:52:45.075Z,35.66
2023-04-16T10:53:45.198Z,36.11
2023-04-16T10:54:45.062Z,38.30
2023-04-16T10:55:45.093Z,35.92
2023-04-16T10:56:45.027Z,35.67
2023-04-16T10:57:45.109Z,36.99
2023-04-16T10:58:45.056Z,34.52
2023-04-16T10:59:45.042Z,34.96
2023-04-16T11:00:45.021Z,34.19
2023-04-16T11:01:45.066Z,40.09
2023-04-16T11:02:45.193Z,34.71
2023-04-16T11:03:46.032Z,38.24
2023-04-16T11:04:45.220Z,35.47
2023-04-16T11:05:45.024Z,34.69
2023-04-16T11:06:44.995Z,36.41
2023-04-16T11:07:45.000Z,38.01
2023-04-16T11:08:53.890Z,35.83
2023-04-16T11:09:46.126Z,36.14
2023-04-16T11:10:45.061Z,36.48
2023-04-16T11:11:44.997Z,37.01
2023-04-16T11:12:45.060Z,34.51
2023-04-16T11:13:44.956Z,38.50
2023-04-16T11:14:44.931Z,36.97
2023-04-16T11:15:45.004Z,35.99
2023-04-16T11:16:44.954Z,38.79
2023-04-16T11:17:44.965Z,35.72
2023-04-16T11:18:50.729Z,38.21
2023-04-16T11:19:45.901Z,38.34
2023-04-16T11:20:44.948Z,38.47
2023-04-16T11:21:44.959Z,37.73
2023-04-16T11:22:44.863Z,34.27
2023-04-16T11:23:44.892Z,37.39
2023-04-16T11:24:44.985Z,40.03
2023-04-16T11:25:44.880Z,37.39
2023-04-16T11:26:44.872Z,38.57
2023-04-16T11:27:44.875Z,36.95
2023-04-16T11:28:44.821Z,34.71
2023-04-16T11:29:47.472Z,37.22
2023-04-16T11:30:44.810Z,37.84
2023-04-16T11:31:44.845Z,40.64
2023-04-16T11:32:44.899Z,39.75
2023-04-16T11:33:44.832Z,36.07
2023-04-16T11:34:45.403Z,38.37
2023-04-16T11:35:44.777Z,37.38
2023-04-16T11:36:44.797Z,38.73
2023-04-16T11:37:44.807Z,38.65
2023-04-16T11:38:44.804Z,37.64
2023-04-16T11:39:44.772Z,35.24
2023-04-16T11:40:44.787Z,37.05
2023-04-16T11:41:45.417Z,36.31
2023-04-16T11:42:45.132Z,36.03
2023-04-16T11:43:44.787Z,38.30
2023-04-16T11:44:44.744Z,38.21
2023-04-16T11:45:44.743Z,38.29
2023-04-16T11:46:44.723Z,35.55
2023-04-16T11:47:44.844Z,37.43
2023-04-16T11:48:44.845Z,36.99
2023-04-16T11:49:44.706Z,36.76
2023-04-16T11:50:44.676Z,35.18
2023-04-16T11:51:44.749Z,34.13
2023-04-16T11:52:44.702Z,37.04
2023-04-16T11:53:44.716Z,36.28
2023-04-16T11:54:44.684Z,38.17
2023-04-16T11:55:44.679Z,36.09
2023-04-16T11:56:44.690Z,36.76
2023-04-16T11:57:44.690Z,35.78
2023-04-16T11:58:44.624Z,38.42
2023-04-16T12:00:02.381Z,36.39
2023-04-16T12:00:45.651Z,36.65
2023-04-16T12:01:44.800Z,36.80
2023-04-16T12:02:44.735Z,37.06
2023-04-16T12:03:44.822Z,38.27
2023-04-16T12:04:44.731Z,39.68
2023-04-16T12:05:44.654Z,38.51
2023-04-16T12:06:44.626Z,37.92
2023-04-16T12:07:44.691Z,39.81
2023-04-16T12:08:44.705Z,39.09
2023-04-16T12:09:44.788Z,34.88
2023-04-16T12:10:44.894Z,36.64
2023-04-16T12:11:44.837Z,38.97
2023-04-16T12:12:44.982Z,40.38
2023-04-16T12:13:45.013Z,37.63
2023-04-16T12:14:45.092Z,39.68
2023-04-16T12:15:45.133Z,37.17
2023-04-16T12:16:45.258Z,39.02
2023-04-16T12:17:45.231Z,37.85
2023-04-16T12:18:45.389Z,36.22
2023-04-16T12:19:45.292Z,36.45
2023-04-16T12:20:45.415Z,35.83
2023-04-16T12:21:45.404Z,37.19
2023-04-16T12:22:45.478Z,37.18
2023-04-16T12:23:45.593Z,37.90
2023-04-16T12:24:45.591Z,37.95
2023-04-16T12:25:45.823Z,38.79
2023-04-16T12:26:45.793Z,37.05
2023-04-16T12:27:45.841Z,36.95
2023-04-16T12:28:45.833Z,37.51
2023-04-16T12:29:45.873Z,40.03
2023-04-16T12:30:45.982Z,38.96
2023-04-16T12:31:45.979Z,35.30
2023-04-16T12:32:46.092Z,37.29
2023-04-16T12:33:46.299Z,37.72
2023-04-16T12:34:49.046Z,36.78
2023-04-16T12:35:46.197Z,41.67
2023-04-16T12:36:46.279Z,37.72
2023-04-16T12:37:46.188Z,40.90
2023-04-16T12:38:46.136Z,41.58